Sirena 3 — WDD7469 — position and weather

sailwx.info

Track history (hours):
 
Tides and Currents Weather Stations Pressure Air Temp Water Temp Dewpoint Dewpoint Depression Visibility Wind Speed Wind Dir Waves Ship Positions

Sirena 3

Owner: Loeb, Steven, Stamford, CT. More information available from US FCC via Universal Licensing System and Coast Guard Vessel Documentation Center.

Last reported at 2015-Jul-25 21:30 UTC. Time now 2015-Aug-02 02:16 UTC.
Position N 41°01' W 073°32'.

Length 18 m.

Type: Sailing vessel. MMSI: 367186880.

Date/timePositionNaut miles runAvg speedWind from/ knotsBaromVisibWave heightAir tempDewpointWater temp
2015-Jul-25 21:30N 41°01' W 073°32'7 3.4
2015-Jul-25 19:24N 40°56' W 073°39'2 2.7
2015-Jul-25 18:32N 40°56' W 073°36'5 5.3
2015-Jul-25 17:31N 41°01' W 073°32'  
2015-Jul-19 22:27N 41°01' W 073°32'4 4.5
2015-Jul-19 21:33N 41°02' W 073°27'5 4.5
2015-Jul-19 20:32N 40°60' W 073°32'2 2.2
2015-Jul-19 19:25N 41°00' W 073°29'3 3.7
2015-Jul-19 18:33N 40°58' W 073°27'3 2.7
2015-Jul-19 17:32N 40°59' W 073°30'  
Track history (hours):
 
Tides and Currents Weather Stations Pressure Air Temp Water Temp Dewpoint Dewpoint Depression Visibility Wind Speed Wind Dir Waves Ship Positions

Sirena 3

Owner: Loeb, Steven, Stamford, CT. More information available from US FCC via Universal Licensing System and Coast Guard Vessel Documentation Center.

Last reported at 2015-Jul-25 21:30 UTC. Time now 2015-Aug-02 02:16 UTC.
Position N 41°01' W 073°32'.

Length 18 m.

Type: Sailing vessel. MMSI: 367186880.

Date/timePositionNaut miles runAvg speedWind from/ knotsBaromVisibWave heightAir tempDewpointWater temp
2015-Jul-25 21:30N 41°01' W 073°32'7 3.4
2015-Jul-25 19:24N 40°56' W 073°39'2 2.7
2015-Jul-25 18:32N 40°56' W 073°36'5 5.3
2015-Jul-25 17:31N 41°01' W 073°32'  
2015-Jul-19 22:27N 41°01' W 073°32'4 4.5
2015-Jul-19 21:33N 41°02' W 073°27'5 4.5
2015-Jul-19 20:32N 40°60' W 073°32'2 2.2
2015-Jul-19 19:25N 41°00' W 073°29'3 3.7
2015-Jul-19 18:33N 40°58' W 073°27'3 2.7
2015-Jul-19 17:32N 40°59' W 073°30'  

Dump ship's entire track history